sensor_id;sensor_type;location;lat;lon;timestamp;P1;durP1;ratioP1;P2;durP2;ratioP2
5303;SDS011;2674;49.722;10.892;2023-02-28T00:00:19;4.83;;;3.20;;
5303;SDS011;2674;49.722;10.892;2023-02-28T00:02:45;3.47;;;3.10;;
5303;SDS011;2674;49.722;10.892;2023-02-28T00:05:12;3.13;;;2.83;;
5303;SDS011;2674;49.722;10.892;2023-02-28T00:07:40;4.27;;;2.80;;
5303;SDS011;2674;49.722;10.892;2023-02-28T00:10:07;3.73;;;3.03;;
5303;SDS011;2674;49.722;10.892;2023-02-28T00:12:38;4.40;;;3.10;;
5303;SDS011;2674;49.722;10.892;2023-02-28T00:15:07;3.03;;;2.73;;
5303;SDS011;2674;49.722;10.892;2023-02-28T00:17:35;3.23;;;2.93;;
5303;SDS011;2674;49.722;10.892;2023-02-28T00:20:01;3.70;;;3.30;;
5303;SDS011;2674;49.722;10.892;2023-02-28T00:22:29;5.93;;;3.73;;
5303;SDS011;2674;49.722;10.892;2023-02-28T00:24:55;3.00;;;2.80;;
5303;SDS011;2674;49.722;10.892;2023-02-28T00:27:21;5.07;;;3.20;;
5303;SDS011;2674;49.722;10.892;2023-02-28T00:29:47;4.93;;;3.93;;
5303;SDS011;2674;49.722;10.892;2023-02-28T00:32:13;3.73;;;3.43;;
5303;SDS011;2674;49.722;10.892;2023-02-28T00:34:39;6.00;;;2.87;;
5303;SDS011;2674;49.722;10.892;2023-02-28T00:37:05;7.23;;;3.80;;
5303;SDS011;2674;49.722;10.892;2023-02-28T00:39:33;6.60;;;4.70;;
5303;SDS011;2674;49.722;10.892;2023-02-28T00:42:00;6.73;;;3.73;;
5303;SDS011;2674;49.722;10.892;2023-02-28T00:44:27;8.43;;;3.63;;
5303;SDS011;2674;49.722;10.892;2023-02-28T00:46:53;5.87;;;4.00;;
5303;SDS011;2674;49.722;10.892;2023-02-28T00:49:19;7.50;;;4.10;;
5303;SDS011;2674;49.722;10.892;2023-02-28T00:51:45;5.83;;;3.40;;
5303;SDS011;2674;49.722;10.892;2023-02-28T00:54:11;5.57;;;3.93;;
5303;SDS011;2674;49.722;10.892;2023-02-28T00:56:37;5.00;;;3.60;;
5303;SDS011;2674;49.722;10.892;2023-02-28T00:59:03;4.47;;;3.50;;
5303;SDS011;2674;49.722;10.892;2023-02-28T01:01:29;5.33;;;3.67;;
5303;SDS011;2674;49.722;10.892;2023-02-28T01:03:55;6.30;;;3.83;;
5303;SDS011;2674;49.722;10.892;2023-02-28T01:06:21;5.53;;;4.20;;
5303;SDS011;2674;49.722;10.892;2023-02-28T01:08:47;5.77;;;3.40;;
5303;SDS011;2674;49.722;10.892;2023-02-28T01:11:13;7.90;;;3.40;;
5303;SDS011;2674;49.722;10.892;2023-02-28T01:13:41;4.20;;;3.80;;
5303;SDS011;2674;49.722;10.892;2023-02-28T01:16:07;3.60;;;3.30;;
5303;SDS011;2674;49.722;10.892;2023-02-28T01:18:33;4.80;;;3.60;;
5303;SDS011;2674;49.722;10.892;2023-02-28T01:21:03;4.77;;;3.07;;
5303;SDS011;2674;49.722;10.892;2023-02-28T01:23:33;4.60;;;3.17;;
5303;SDS011;2674;49.722;10.892;2023-02-28T01:26:08;3.70;;;3.10;;
5303;SDS011;2674;49.722;10.892;2023-02-28T01:28:37;4.00;;;3.23;;
5303;SDS011;2674;49.722;10.892;2023-02-28T01:31:03;3.47;;;3.17;;
5303;SDS011;2674;49.722;10.892;2023-02-28T01:33:29;4.00;;;3.70;;
5303;SDS011;2674;49.722;10.892;2023-02-28T01:35:59;4.20;;;3.80;;
5303;SDS011;2674;49.722;10.892;2023-02-28T01:38:34;4.77;;;3.27;;
5303;SDS011;2674;49.722;10.892;2023-02-28T01:41:01;4.50;;;3.60;;
5303;SDS011;2674;49.722;10.892;2023-02-28T01:43:28;7.27;;;3.73;;
5303;SDS011;2674;49.722;10.892;2023-02-28T01:45:56;3.20;;;2.93;;
5303;SDS011;2674;49.722;10.892;2023-02-28T01:48:31;7.57;;;4.40;;
5303;SDS011;2674;49.722;10.892;2023-02-28T01:51:01;3.70;;;3.30;;
5303;SDS011;2674;49.722;10.892;2023-02-28T01:53:44;6.03;;;4.00;;
5303;SDS011;2674;49.722;10.892;2023-02-28T01:56:13;5.73;;;3.80;;
5303;SDS011;2674;49.722;10.892;2023-02-28T01:58:46;9.53;;;4.00;;
5303;SDS011;2674;49.722;10.892;2023-02-28T02:01:16;4.20;;;3.80;;
5303;SDS011;2674;49.722;10.892;2023-02-28T02:04:07;6.87;;;3.50;;
5303;SDS011;2674;49.722;10.892;2023-02-28T02:06:37;4.80;;;3.70;;
5303;SDS011;2674;49.722;10.892;2023-02-28T02:09:07;10.30;;;3.80;;
5303;SDS011;2674;49.722;10.892;2023-02-28T02:11:33;4.73;;;4.07;;
5303;SDS011;2674;49.722;10.892;2023-02-28T02:19:35;6.10;;;3.53;;
5303;SDS011;2674;49.722;10.892;2023-02-28T02:25:32;4.77;;;3.77;;
5303;SDS011;2674;49.722;10.892;2023-02-28T02:30:44;4.80;;;4.17;;
5303;SDS011;2674;49.722;10.892;2023-02-28T02:36:22;3.73;;;3.37;;
5303;SDS011;2674;49.722;10.892;2023-02-28T02:41:49;6.50;;;4.80;;
5303;SDS011;2674;49.722;10.892;2023-02-28T02:44:30;4.90;;;3.60;;
5303;SDS011;2674;49.722;10.892;2023-02-28T02:47:03;4.40;;;3.63;;
5303;SDS011;2674;49.722;10.892;2023-02-28T02:49:36;4.33;;;3.87;;
5303;SDS011;2674;49.722;10.892;2023-02-28T02:52:06;4.33;;;3.93;;
5303;SDS011;2674;49.722;10.892;2023-02-28T02:54:40;5.47;;;3.70;;
5303;SDS011;2674;49.722;10.892;2023-02-28T02:57:09;7.83;;;3.77;;
5303;SDS011;2674;49.722;10.892;2023-02-28T02:59:42;9.60;;;4.13;;
5303;SDS011;2674;49.722;10.892;2023-02-28T03:02:09;4.67;;;4.27;;
5303;SDS011;2674;49.722;10.892;2023-02-28T03:04:51;9.13;;;3.90;;
5303;SDS011;2674;49.722;10.892;2023-02-28T03:07:25;8.10;;;4.40;;
5303;SDS011;2674;49.722;10.892;2023-02-28T03:09:52;15.07;;;4.50;;
5303;SDS011;2674;49.722;10.892;2023-02-28T03:12:19;12.00;;;5.77;;
5303;SDS011;2674;49.722;10.892;2023-02-28T03:14:54;11.13;;;5.80;;
5303;SDS011;2674;49.722;10.892;2023-02-28T03:17:35;10.23;;;5.07;;
5303;SDS011;2674;49.722;10.892;2023-02-28T03:25:52;12.20;;;6.20;;
5303;SDS011;2674;49.722;10.892;2023-02-28T03:31:19;12.00;;;6.40;;
5303;SDS011;2674;49.722;10.892;2023-02-28T03:34:01;7.67;;;4.30;;
5303;SDS011;2674;49.722;10.892;2023-02-28T03:36:29;14.83;;;5.30;;
5303;SDS011;2674;49.722;10.892;2023-02-28T03:39:03;8.10;;;4.97;;
5303;SDS011;2674;49.722;10.892;2023-02-28T03:41:35;5.77;;;4.00;;
5303;SDS011;2674;49.722;10.892;2023-02-28T03:44:17;4.53;;;3.70;;
5303;SDS011;2674;49.722;10.892;2023-02-28T03:46:54;10.47;;;6.20;;
5303;SDS011;2674;49.722;10.892;2023-02-28T03:49:42;5.10;;;4.20;;
5303;SDS011;2674;49.722;10.892;2023-02-28T03:52:14;7.60;;;5.00;;
5303;SDS011;2674;49.722;10.892;2023-02-28T03:54:46;9.60;;;5.00;;
5303;SDS011;2674;49.722;10.892;2023-02-28T03:57:24;6.40;;;4.30;;
5303;SDS011;2674;49.722;10.892;2023-02-28T04:02:57;5.97;;;4.13;;
5303;SDS011;2674;49.722;10.892;2023-02-28T04:05:24;7.63;;;5.50;;
5303;SDS011;2674;49.722;10.892;2023-02-28T04:07:50;7.03;;;4.67;;
5303;SDS011;2674;49.722;10.892;2023-02-28T04:10:16;6.00;;;4.50;;
5303;SDS011;2674;49.722;10.892;2023-02-28T04:12:42;6.80;;;4.67;;
5303;SDS011;2674;49.722;10.892;2023-02-28T04:15:08;8.23;;;4.70;;
5303;SDS011;2674;49.722;10.892;2023-02-28T04:17:35;6.27;;;3.67;;
5303;SDS011;2674;49.722;10.892;2023-02-28T04:20:01;6.57;;;4.27;;
5303;SDS011;2674;49.722;10.892;2023-02-28T04:22:28;7.43;;;4.83;;
5303;SDS011;2674;49.722;10.892;2023-02-28T04:24:54;6.00;;;4.40;;
5303;SDS011;2674;49.722;10.892;2023-02-28T04:27:20;5.73;;;3.97;;
5303;SDS011;2674;49.722;10.892;2023-02-28T04:29:46;8.17;;;4.30;;
5303;SDS011;2674;49.722;10.892;2023-02-28T04:32:12;9.77;;;5.47;;
5303;SDS011;2674;49.722;10.892;2023-02-28T04:34:38;6.63;;;4.80;;
5303;SDS011;2674;49.722;10.892;2023-02-28T04:37:05;9.53;;;5.00;;
5303;SDS011;2674;49.722;10.892;2023-02-28T04:39:34;6.50;;;5.17;;
5303;SDS011;2674;49.722;10.892;2023-02-28T04:42:01;10.20;;;5.00;;
5303;SDS011;2674;49.722;10.892;2023-02-28T04:44:27;8.80;;;5.33;;
5303;SDS011;2674;49.722;10.892;2023-02-28T04:46:52;8.20;;;4.90;;
5303;SDS011;2674;49.722;10.892;2023-02-28T04:49:18;8.70;;;5.10;;
5303;SDS011;2674;49.722;10.892;2023-02-28T04:51:44;8.63;;;4.57;;
5303;SDS011;2674;49.722;10.892;2023-02-28T04:54:10;9.00;;;4.77;;
5303;SDS011;2674;49.722;10.892;2023-02-28T04:56:36;11.17;;;5.33;;
5303;SDS011;2674;49.722;10.892;2023-02-28T04:59:02;9.10;;;4.80;;
5303;SDS011;2674;49.722;10.892;2023-02-28T05:01:28;8.03;;;4.97;;
5303;SDS011;2674;49.722;10.892;2023-02-28T05:04:00;8.00;;;5.40;;
5303;SDS011;2674;49.722;10.892;2023-02-28T05:06:29;10.30;;;4.50;;
5303;SDS011;2674;49.722;10.892;2023-02-28T05:08:56;7.67;;;5.17;;
5303;SDS011;2674;49.722;10.892;2023-02-28T05:11:23;7.90;;;5.00;;
5303;SDS011;2674;49.722;10.892;2023-02-28T05:13:54;7.47;;;4.53;;
5303;SDS011;2674;49.722;10.892;2023-02-28T05:16:20;10.17;;;5.90;;
5303;SDS011;2674;49.722;10.892;2023-02-28T05:18:46;9.00;;;5.30;;
5303;SDS011;2674;49.722;10.892;2023-02-28T05:21:20;7.20;;;5.27;;
5303;SDS011;2674;49.722;10.892;2023-02-28T05:23:56;7.60;;;4.70;;
5303;SDS011;2674;49.722;10.892;2023-02-28T05:26:26;7.63;;;5.20;;
5303;SDS011;2674;49.722;10.892;2023-02-28T05:28:53;9.43;;;5.23;;
5303;SDS011;2674;49.722;10.892;2023-02-28T05:31:19;8.33;;;5.30;;
5303;SDS011;2674;49.722;10.892;2023-02-28T05:33:45;6.07;;;5.03;;
5303;SDS011;2674;49.722;10.892;2023-02-28T05:36:11;8.33;;;5.20;;
5303;SDS011;2674;49.722;10.892;2023-02-28T05:38:38;9.73;;;5.57;;
5303;SDS011;2674;49.722;10.892;2023-02-28T05:41:07;9.70;;;6.67;;
5303;SDS011;2674;49.722;10.892;2023-02-28T05:43:34;13.90;;;5.70;;
5303;SDS011;2674;49.722;10.892;2023-02-28T05:46:02;10.10;;;6.63;;
5303;SDS011;2674;49.722;10.892;2023-02-28T05:48:29;7.20;;;5.57;;
5303;SDS011;2674;49.722;10.892;2023-02-28T05:50:56;8.90;;;5.70;;
5303;SDS011;2674;49.722;10.892;2023-02-28T05:53:22;8.37;;;4.93;;
5303;SDS011;2674;49.722;10.892;2023-02-28T05:55:48;10.20;;;5.37;;
5303;SDS011;2674;49.722;10.892;2023-02-28T05:58:14;7.63;;;5.60;;
5303;SDS011;2674;49.722;10.892;2023-02-28T06:00:40;9.47;;;6.07;;
5303;SDS011;2674;49.722;10.892;2023-02-28T06:03:06;8.73;;;5.13;;
5303;SDS011;2674;49.722;10.892;2023-02-28T06:05:32;8.80;;;6.40;;
5303;SDS011;2674;49.722;10.892;2023-02-28T06:07:58;9.50;;;6.20;;
5303;SDS011;2674;49.722;10.892;2023-02-28T06:10:23;9.80;;;6.00;;
5303;SDS011;2674;49.722;10.892;2023-02-28T06:12:49;11.83;;;6.40;;
5303;SDS011;2674;49.722;10.892;2023-02-28T06:15:15;10.90;;;6.10;;
5303;SDS011;2674;49.722;10.892;2023-02-28T06:17:42;9.30;;;6.07;;
5303;SDS011;2674;49.722;10.892;2023-02-28T06:20:09;13.50;;;7.10;;
5303;SDS011;2674;49.722;10.892;2023-02-28T06:22:37;10.23;;;6.57;;
5303;SDS011;2674;49.722;10.892;2023-02-28T06:25:04;7.03;;;5.90;;
5303;SDS011;2674;49.722;10.892;2023-02-28T06:27:31;12.90;;;6.57;;
5303;SDS011;2674;49.722;10.892;2023-02-28T06:29:58;10.40;;;5.97;;
5303;SDS011;2674;49.722;10.892;2023-02-28T06:32:24;7.50;;;6.13;;
5303;SDS011;2674;49.722;10.892;2023-02-28T06:34:50;11.67;;;6.43;;
5303;SDS011;2674;49.722;10.892;2023-02-28T06:37:16;10.33;;;6.40;;
5303;SDS011;2674;49.722;10.892;2023-02-28T06:39:42;10.07;;;6.70;;
5303;SDS011;2674;49.722;10.892;2023-02-28T06:42:08;9.80;;;6.67;;
5303;SDS011;2674;49.722;10.892;2023-02-28T06:44:34;12.33;;;5.87;;
5303;SDS011;2674;49.722;10.892;2023-02-28T06:47:01;12.63;;;7.20;;
5303;SDS011;2674;49.722;10.892;2023-02-28T06:49:32;16.37;;;6.77;;
5303;SDS011;2674;49.722;10.892;2023-02-28T06:51:59;12.03;;;6.00;;
5303;SDS011;2674;49.722;10.892;2023-02-28T06:54:25;12.13;;;6.63;;
5303;SDS011;2674;49.722;10.892;2023-02-28T06:56:50;14.20;;;7.17;;
5303;SDS011;2674;49.722;10.892;2023-02-28T06:59:16;11.50;;;6.83;;
5303;SDS011;2674;49.722;10.892;2023-02-28T07:01:42;11.73;;;6.53;;
5303;SDS011;2674;49.722;10.892;2023-02-28T07:04:08;9.23;;;6.80;;
5303;SDS011;2674;49.722;10.892;2023-02-28T07:06:34;12.00;;;6.50;;
5303;SDS011;2674;49.722;10.892;2023-02-28T07:09:00;10.77;;;7.23;;
5303;SDS011;2674;49.722;10.892;2023-02-28T07:11:26;11.77;;;7.03;;
5303;SDS011;2674;49.722;10.892;2023-02-28T07:13:53;12.37;;;6.97;;
5303;SDS011;2674;49.722;10.892;2023-02-28T07:16:20;9.43;;;6.30;;
5303;SDS011;2674;49.722;10.892;2023-02-28T07:18:47;10.83;;;5.77;;
5303;SDS011;2674;49.722;10.892;2023-02-28T07:21:12;9.23;;;7.70;;
5303;SDS011;2674;49.722;10.892;2023-02-28T07:23:39;10.87;;;6.33;;
5303;SDS011;2674;49.722;10.892;2023-02-28T07:26:05;10.30;;;6.00;;
5303;SDS011;2674;49.722;10.892;2023-02-28T07:28:32;13.10;;;7.27;;
5303;SDS011;2674;49.722;10.892;2023-02-28T07:31:02;11.87;;;7.60;;
5303;SDS011;2674;49.722;10.892;2023-02-28T07:33:32;11.27;;;7.00;;
5303;SDS011;2674;49.722;10.892;2023-02-28T07:36:09;11.93;;;6.87;;
5303;SDS011;2674;49.722;10.892;2023-02-28T07:38:44;9.60;;;5.40;;
5303;SDS011;2674;49.722;10.892;2023-02-28T07:41:13;13.07;;;8.10;;
5303;SDS011;2674;49.722;10.892;2023-02-28T07:43:40;8.07;;;5.90;;
5303;SDS011;2674;49.722;10.892;2023-02-28T07:46:07;9.60;;;7.33;;
5303;SDS011;2674;49.722;10.892;2023-02-28T07:48:34;14.87;;;7.30;;
5303;SDS011;2674;49.722;10.892;2023-02-28T07:51:00;11.40;;;6.80;;
5303;SDS011;2674;49.722;10.892;2023-02-28T07:53:27;13.50;;;6.97;;
5303;SDS011;2674;49.722;10.892;2023-02-28T07:55:57;8.97;;;6.33;;
5303;SDS011;2674;49.722;10.892;2023-02-28T07:58:23;11.90;;;7.70;;
5303;SDS011;2674;49.722;10.892;2023-02-28T08:00:50;10.13;;;6.77;;
5303;SDS011;2674;49.722;10.892;2023-02-28T08:03:19;8.43;;;7.30;;
5303;SDS011;2674;49.722;10.892;2023-02-28T08:05:47;11.60;;;6.73;;
5303;SDS011;2674;49.722;10.892;2023-02-28T08:08:13;11.27;;;6.73;;
5303;SDS011;2674;49.722;10.892;2023-02-28T08:10:40;14.50;;;7.40;;
5303;SDS011;2674;49.722;10.892;2023-02-28T08:13:06;11.77;;;6.67;;
5303;SDS011;2674;49.722;10.892;2023-02-28T08:15:32;9.00;;;7.03;;
5303;SDS011;2674;49.722;10.892;2023-02-28T08:17:58;11.30;;;6.20;;
5303;SDS011;2674;49.722;10.892;2023-02-28T08:20:24;15.27;;;7.40;;
5303;SDS011;2674;49.722;10.892;2023-02-28T08:22:52;9.97;;;6.80;;
5303;SDS011;2674;49.722;10.892;2023-02-28T08:25:18;14.57;;;6.63;;
5303;SDS011;2674;49.722;10.892;2023-02-28T08:27:44;11.10;;;7.60;;
5303;SDS011;2674;49.722;10.892;2023-02-28T08:30:11;11.03;;;7.33;;
5303;SDS011;2674;49.722;10.892;2023-02-28T08:32:38;7.97;;;5.27;;
5303;SDS011;2674;49.722;10.892;2023-02-28T08:35:07;13.07;;;7.20;;
5303;SDS011;2674;49.722;10.892;2023-02-28T08:37:34;12.53;;;6.50;;
5303;SDS011;2674;49.722;10.892;2023-02-28T08:40:00;15.03;;;8.27;;
5303;SDS011;2674;49.722;10.892;2023-02-28T08:42:26;13.80;;;7.80;;
5303;SDS011;2674;49.722;10.892;2023-02-28T08:44:52;13.10;;;7.83;;
5303;SDS011;2674;49.722;10.892;2023-02-28T08:47:18;15.63;;;7.63;;
5303;SDS011;2674;49.722;10.892;2023-02-28T08:49:44;12.73;;;8.13;;
5303;SDS011;2674;49.722;10.892;2023-02-28T08:52:10;11.43;;;7.37;;
5303;SDS011;2674;49.722;10.892;2023-02-28T08:54:35;11.83;;;6.10;;
5303;SDS011;2674;49.722;10.892;2023-02-28T08:57:02;11.23;;;7.07;;
5303;SDS011;2674;49.722;10.892;2023-02-28T08:59:28;12.40;;;7.00;;
5303;SDS011;2674;49.722;10.892;2023-02-28T09:01:54;12.33;;;7.43;;
5303;SDS011;2674;49.722;10.892;2023-02-28T09:04:20;10.40;;;7.23;;
5303;SDS011;2674;49.722;10.892;2023-02-28T09:06:46;9.80;;;6.60;;
5303;SDS011;2674;49.722;10.892;2023-02-28T09:09:14;12.50;;;6.87;;
5303;SDS011;2674;49.722;10.892;2023-02-28T09:11:40;17.13;;;7.90;;
5303;SDS011;2674;49.722;10.892;2023-02-28T09:14:06;14.10;;;7.57;;
5303;SDS011;2674;49.722;10.892;2023-02-28T09:16:32;15.23;;;7.97;;
5303;SDS011;2674;49.722;10.892;2023-02-28T09:18:58;11.03;;;6.93;;
5303;SDS011;2674;49.722;10.892;2023-02-28T09:21:25;13.60;;;7.60;;
5303;SDS011;2674;49.722;10.892;2023-02-28T09:23:51;12.70;;;6.30;;
5303;SDS011;2674;49.722;10.892;2023-02-28T09:26:27;11.07;;;6.63;;
5303;SDS011;2674;49.722;10.892;2023-02-28T09:28:53;14.17;;;7.53;;
5303;SDS011;2674;49.722;10.892;2023-02-28T09:31:24;10.50;;;6.53;;
5303;SDS011;2674;49.722;10.892;2023-02-28T09:33:52;10.70;;;6.67;;
5303;SDS011;2674;49.722;10.892;2023-02-28T09:36:19;12.30;;;6.73;;
5303;SDS011;2674;49.722;10.892;2023-02-28T09:38:46;9.97;;;6.20;;
5303;SDS011;2674;49.722;10.892;2023-02-28T09:43:57;12.87;;;7.10;;
5303;SDS011;2674;49.722;10.892;2023-02-28T09:46:42;11.80;;;6.30;;
5303;SDS011;2674;49.722;10.892;2023-02-28T09:49:14;7.47;;;5.10;;
5303;SDS011;2674;49.722;10.892;2023-02-28T09:54:18;9.93;;;6.37;;
5303;SDS011;2674;49.722;10.892;2023-02-28T09:56:50;8.33;;;6.00;;
5303;SDS011;2674;49.722;10.892;2023-02-28T10:02:06;9.47;;;5.30;;
5303;SDS011;2674;49.722;10.892;2023-02-28T10:05:03;7.63;;;5.40;;
5303;SDS011;2674;49.722;10.892;2023-02-28T10:07:44;8.97;;;6.50;;
5303;SDS011;2674;49.722;10.892;2023-02-28T10:12:47;7.90;;;5.33;;
5303;SDS011;2674;49.722;10.892;2023-02-28T10:15:16;15.13;;;4.80;;
5303;SDS011;2674;49.722;10.892;2023-02-28T10:17:43;7.93;;;5.37;;
5303;SDS011;2674;49.722;10.892;2023-02-28T10:20:14;7.63;;;5.80;;
5303;SDS011;2674;49.722;10.892;2023-02-28T10:22:59;6.97;;;6.23;;
5303;SDS011;2674;49.722;10.892;2023-02-28T10:25:27;8.20;;;5.93;;
5303;SDS011;2674;49.722;10.892;2023-02-28T10:28:11;6.73;;;5.90;;
5303;SDS011;2674;49.722;10.892;2023-02-28T10:30:59;6.80;;;6.03;;
5303;SDS011;2674;49.722;10.892;2023-02-28T10:33:27;10.43;;;5.47;;
5303;SDS011;2674;49.722;10.892;2023-02-28T10:35:59;7.80;;;5.63;;
5303;SDS011;2674;49.722;10.892;2023-02-28T10:38:33;8.50;;;5.90;;
5303;SDS011;2674;49.722;10.892;2023-02-28T10:41:06;5.00;;;4.50;;
5303;SDS011;2674;49.722;10.892;2023-02-28T10:43:36;6.03;;;4.50;;
5303;SDS011;2674;49.722;10.892;2023-02-28T10:46:09;6.50;;;5.47;;
5303;SDS011;2674;49.722;10.892;2023-02-28T10:48:37;6.13;;;5.07;;
5303;SDS011;2674;49.722;10.892;2023-02-28T10:51:14;8.20;;;5.77;;
5303;SDS011;2674;49.722;10.892;2023-02-28T11:04:02;9.57;;;5.90;;
5303;SDS011;2674;49.722;10.892;2023-02-28T11:06:30;6.90;;;5.13;;
5303;SDS011;2674;49.722;10.892;2023-02-28T11:08:58;6.50;;;5.00;;
5303;SDS011;2674;49.722;10.892;2023-02-28T11:11:28;9.13;;;4.93;;
5303;SDS011;2674;49.722;10.892;2023-02-28T11:14:05;9.07;;;5.47;;
5303;SDS011;2674;49.722;10.892;2023-02-28T11:16:40;10.23;;;6.00;;
5303;SDS011;2674;49.722;10.892;2023-02-28T11:19:06;6.60;;;4.87;;
5303;SDS011;2674;49.722;10.892;2023-02-28T11:22:03;6.87;;;5.33;;
5303;SDS011;2674;49.722;10.892;2023-02-28T11:24:31;8.77;;;5.40;;
5303;SDS011;2674;49.722;10.892;2023-02-28T11:27:01;8.00;;;5.60;;
5303;SDS011;2674;49.722;10.892;2023-02-28T11:29:31;7.43;;;6.00;;
5303;SDS011;2674;49.722;10.892;2023-02-28T11:32:13;8.80;;;5.93;;
5303;SDS011;2674;49.722;10.892;2023-02-28T11:34:44;7.77;;;4.87;;
5303;SDS011;2674;49.722;10.892;2023-02-28T11:37:24;12.93;;;6.13;;
5303;SDS011;2674;49.722;10.892;2023-02-28T11:39:52;7.23;;;5.50;;
5303;SDS011;2674;49.722;10.892;2023-02-28T12:04:33;9.75;;;6.07;;
5303;SDS011;2674;49.722;10.892;2023-02-28T12:07:13;8.97;;;6.10;;
5303;SDS011;2674;49.722;10.892;2023-02-28T12:21:15;8.43;;;5.60;;
5303;SDS011;2674;49.722;10.892;2023-02-28T12:26:54;7.43;;;5.83;;
5303;SDS011;2674;49.722;10.892;2023-02-28T12:29:24;17.80;;;6.63;;
5303;SDS011;2674;49.722;10.892;2023-02-28T12:31:59;8.33;;;5.47;;
5303;SDS011;2674;49.722;10.892;2023-02-28T12:34:35;7.77;;;5.77;;
5303;SDS011;2674;49.722;10.892;2023-02-28T12:37:09;6.87;;;5.20;;
5303;SDS011;2674;49.722;10.892;2023-02-28T12:39:41;7.80;;;5.43;;
5303;SDS011;2674;49.722;10.892;2023-02-28T12:42:12;5.97;;;4.80;;
5303;SDS011;2674;49.722;10.892;2023-02-28T12:44:49;7.50;;;5.67;;
5303;SDS011;2674;49.722;10.892;2023-02-28T12:47:23;7.60;;;5.70;;
5303;SDS011;2674;49.722;10.892;2023-02-28T12:52:23;11.80;;;7.20;;
5303;SDS011;2674;49.722;10.892;2023-02-28T12:55:08;8.87;;;6.37;;
5303;SDS011;2674;49.722;10.892;2023-02-28T12:57:43;8.93;;;6.00;;
5303;SDS011;2674;49.722;10.892;2023-02-28T13:00:35;10.80;;;5.80;;
5303;SDS011;2674;49.722;10.892;2023-02-28T13:11:25;8.70;;;5.70;;
5303;SDS011;2674;49.722;10.892;2023-02-28T13:14:03;9.40;;;6.00;;
5303;SDS011;2674;49.722;10.892;2023-02-28T13:19:22;7.80;;;5.80;;
5303;SDS011;2674;49.722;10.892;2023-02-28T13:21:51;9.13;;;5.73;;
5303;SDS011;2674;49.722;10.892;2023-02-28T13:25:18;6.80;;;5.60;;
5303;SDS011;2674;49.722;10.892;2023-02-28T13:29:41;8.50;;;5.60;;
5303;SDS011;2674;49.722;10.892;2023-02-28T13:34:36;8.30;;;6.20;;
5303;SDS011;2674;49.722;10.892;2023-02-28T13:39:55;8.63;;;6.60;;
5303;SDS011;2674;49.722;10.892;2023-02-28T14:09:41;11.30;;;7.23;;
5303;SDS011;2674;49.722;10.892;2023-02-28T14:15:23;10.40;;;6.30;;
5303;SDS011;2674;49.722;10.892;2023-02-28T14:18:05;10.20;;;7.13;;
5303;SDS011;2674;49.722;10.892;2023-02-28T14:20:40;10.93;;;6.60;;
5303;SDS011;2674;49.722;10.892;2023-02-28T14:26:12;13.10;;;5.90;;
5303;SDS011;2674;49.722;10.892;2023-02-28T14:36:57;9.30;;;6.27;;
5303;SDS011;2674;49.722;10.892;2023-02-28T14:39:32;9.20;;;5.53;;
5303;SDS011;2674;49.722;10.892;2023-02-28T14:42:02;7.03;;;5.73;;
5303;SDS011;2674;49.722;10.892;2023-02-28T14:44:30;8.10;;;5.53;;
5303;SDS011;2674;49.722;10.892;2023-02-28T14:46:57;9.03;;;5.90;;
5303;SDS011;2674;49.722;10.892;2023-02-28T14:49:43;11.97;;;6.00;;
5303;SDS011;2674;49.722;10.892;2023-02-28T14:52:14;12.67;;;6.40;;
5303;SDS011;2674;49.722;10.892;2023-02-28T14:54:45;13.17;;;7.20;;
5303;SDS011;2674;49.722;10.892;2023-02-28T14:57:27;9.97;;;5.60;;
5303;SDS011;2674;49.722;10.892;2023-02-28T14:59:59;7.50;;;5.40;;
5303;SDS011;2674;49.722;10.892;2023-02-28T15:02:26;6.43;;;5.73;;
5303;SDS011;2674;49.722;10.892;2023-02-28T15:04:55;10.50;;;6.10;;
5303;SDS011;2674;49.722;10.892;2023-02-28T15:07:31;7.47;;;5.70;;
5303;SDS011;2674;49.722;10.892;2023-02-28T15:12:41;8.90;;;6.00;;
5303;SDS011;2674;49.722;10.892;2023-02-28T15:15:19;10.67;;;5.73;;
5303;SDS011;2674;49.722;10.892;2023-02-28T15:17:53;11.47;;;6.30;;
5303;SDS011;2674;49.722;10.892;2023-02-28T15:20:24;11.80;;;6.40;;
5303;SDS011;2674;49.722;10.892;2023-02-28T15:22:55;11.57;;;6.33;;
5303;SDS011;2674;49.722;10.892;2023-02-28T15:25:25;9.37;;;6.03;;
5303;SDS011;2674;49.722;10.892;2023-02-28T15:27:53;8.53;;;5.63;;
5303;SDS011;2674;49.722;10.892;2023-02-28T15:30:34;9.87;;;6.43;;
5303;SDS011;2674;49.722;10.892;2023-02-28T15:38:59;8.80;;;5.33;;
5303;SDS011;2674;49.722;10.892;2023-02-28T15:41:28;9.10;;;6.23;;
5303;SDS011;2674;49.722;10.892;2023-02-28T15:46:57;10.60;;;5.80;;
5303;SDS011;2674;49.722;10.892;2023-02-28T15:49:39;10.10;;;5.80;;
5303;SDS011;2674;49.722;10.892;2023-02-28T15:52:12;9.90;;;5.53;;
5303;SDS011;2674;49.722;10.892;2023-02-28T15:54:41;8.37;;;6.17;;
5303;SDS011;2674;49.722;10.892;2023-02-28T15:57:28;9.87;;;5.73;;
5303;SDS011;2674;49.722;10.892;2023-02-28T15:59:55;10.00;;;6.00;;
5303;SDS011;2674;49.722;10.892;2023-02-28T16:02:31;9.00;;;5.17;;
5303;SDS011;2674;49.722;10.892;2023-02-28T16:07:26;8.37;;;6.00;;
5303;SDS011;2674;49.722;10.892;2023-02-28T16:09:52;11.37;;;5.93;;
5303;SDS011;2674;49.722;10.892;2023-02-28T16:12:19;8.60;;;5.67;;
5303;SDS011;2674;49.722;10.892;2023-02-28T16:14:48;8.87;;;5.93;;
5303;SDS011;2674;49.722;10.892;2023-02-28T16:17:21;8.20;;;5.93;;
5303;SDS011;2674;49.722;10.892;2023-02-28T16:19:49;9.83;;;5.87;;
5303;SDS011;2674;49.722;10.892;2023-02-28T16:22:15;14.37;;;7.30;;
5303;SDS011;2674;49.722;10.892;2023-02-28T16:24:41;10.43;;;6.47;;
5303;SDS011;2674;49.722;10.892;2023-02-28T16:27:10;9.00;;;6.20;;
5303;SDS011;2674;49.722;10.892;2023-02-28T16:29:43;9.63;;;5.70;;
5303;SDS011;2674;49.722;10.892;2023-02-28T16:32:10;11.13;;;7.30;;
5303;SDS011;2674;49.722;10.892;2023-02-28T16:34:39;13.23;;;6.10;;
5303;SDS011;2674;49.722;10.892;2023-02-28T16:37:09;9.33;;;5.90;;
5303;SDS011;2674;49.722;10.892;2023-02-28T16:39:37;9.97;;;5.90;;
5303;SDS011;2674;49.722;10.892;2023-02-28T16:42:03;9.40;;;6.03;;
5303;SDS011;2674;49.722;10.892;2023-02-28T16:44:32;8.50;;;6.97;;
5303;SDS011;2674;49.722;10.892;2023-02-28T16:47:00;10.43;;;6.90;;
5303;SDS011;2674;49.722;10.892;2023-02-28T16:49:26;10.80;;;6.13;;
5303;SDS011;2674;49.722;10.892;2023-02-28T16:51:52;10.13;;;6.73;;
5303;SDS011;2674;49.722;10.892;2023-02-28T16:54:18;10.80;;;6.00;;
5303;SDS011;2674;49.722;10.892;2023-02-28T16:56:45;10.60;;;6.50;;
5303;SDS011;2674;49.722;10.892;2023-02-28T16:59:13;10.90;;;6.67;;
5303;SDS011;2674;49.722;10.892;2023-02-28T17:01:42;10.70;;;7.10;;
5303;SDS011;2674;49.722;10.892;2023-02-28T17:04:09;12.30;;;6.43;;
5303;SDS011;2674;49.722;10.892;2023-02-28T17:06:38;12.90;;;7.00;;
5303;SDS011;2674;49.722;10.892;2023-02-28T17:09:05;10.53;;;6.53;;
5303;SDS011;2674;49.722;10.892;2023-02-28T17:11:33;16.70;;;8.20;;
5303;SDS011;2674;49.722;10.892;2023-02-28T17:13:59;8.70;;;6.77;;
5303;SDS011;2674;49.722;10.892;2023-02-28T17:16:26;11.07;;;6.63;;
5303;SDS011;2674;49.722;10.892;2023-02-28T17:18:55;12.00;;;7.43;;
5303;SDS011;2674;49.722;10.892;2023-02-28T17:21:23;12.43;;;7.87;;
5303;SDS011;2674;49.722;10.892;2023-02-28T17:23:49;11.03;;;7.37;;
5303;SDS011;2674;49.722;10.892;2023-02-28T17:26:16;10.70;;;6.87;;
5303;SDS011;2674;49.722;10.892;2023-02-28T17:28:46;8.57;;;7.03;;
5303;SDS011;2674;49.722;10.892;2023-02-28T17:31:13;11.43;;;7.90;;
5303;SDS011;2674;49.722;10.892;2023-02-28T17:33:40;10.40;;;7.20;;
5303;SDS011;2674;49.722;10.892;2023-02-28T17:36:08;12.77;;;6.93;;
5303;SDS011;2674;49.722;10.892;2023-02-28T17:38:38;17.00;;;7.43;;
5303;SDS011;2674;49.722;10.892;2023-02-28T17:41:04;14.43;;;8.00;;
5303;SDS011;2674;49.722;10.892;2023-02-28T17:43:30;11.97;;;7.50;;
5303;SDS011;2674;49.722;10.892;2023-02-28T17:45:56;14.47;;;7.00;;
5303;SDS011;2674;49.722;10.892;2023-02-28T17:48:23;12.87;;;6.90;;
5303;SDS011;2674;49.722;10.892;2023-02-28T17:50:49;11.37;;;6.73;;
5303;SDS011;2674;49.722;10.892;2023-02-28T17:53:15;11.30;;;6.77;;